VOZ227 YMML-YPAD
Flight info
| Callsign | VOZ227 |
|---|---|
| Flight time | 0h 35m |
| Altitude | 34000 |
| Route | ML H345 AD |
| Aircraft | B738/M-SDE2E3FGHIRWXY/LB1 |
Departure
| Time | 2026-05-07 02:20 |
|---|---|
| Airport | Melbourne Airport (YMML) |
Arrival
| Time | 2026-05-07 02:56 |
|---|---|
| Airport | Adelaide International Airport (YPAD) |
| Time | Latitude | Longitude | Altitude | Speed | Heading |
|---|---|---|---|---|---|
| 2026-05-07 01:46 | -37.67122 | 144.84634 | 388 ft | 0 kts | 352° |
| 2026-05-07 02:09 | -37.67124 | 144.84635 | 388 ft | 2 kts | 352° |
| 2026-05-07 02:09 | -37.67149 | 144.84639 | 387 ft | 4 kts | 352° |
| 2026-05-07 02:09 | -37.67164 | 144.84642 | 387 ft | 2 kts | 352° |
| 2026-05-07 02:09 | -37.67192 | 144.84654 | 387 ft | 4 kts | 301° |
| 2026-05-07 02:10 | -37.67193 | 144.84680 | 387 ft | 4 kts | 261° |
| 2026-05-07 02:10 | -37.67192 | 144.84696 | 387 ft | 0 kts | 261° |
| 2026-05-07 02:13 | -37.67193 | 144.84686 | 387 ft | 4 kts | 262° |
| 2026-05-07 02:14 | -37.67200 | 144.84625 | 386 ft | 10 kts | 262° |
| 2026-05-07 02:14 | -37.67211 | 144.84522 | 384 ft | 13 kts | 267° |
| 2026-05-07 02:14 | -37.67200 | 144.84398 | 383 ft | 15 kts | 265° |
| 2026-05-07 02:14 | -37.67196 | 144.84284 | 381 ft | 13 kts | 304° |
| 2026-05-07 02:15 | -37.67120 | 144.84254 | 382 ft | 13 kts | 351° |
| 2026-05-07 02:15 | -37.67035 | 144.84238 | 384 ft | 12 kts | 353° |
| 2026-05-07 02:15 | -37.66950 | 144.84223 | 386 ft | 12 kts | 351° |
| 2026-05-07 02:15 | -37.66868 | 144.84207 | 389 ft | 12 kts | 352° |
| 2026-05-07 02:16 | -37.66788 | 144.84193 | 391 ft | 11 kts | 351° |
| 2026-05-07 02:16 | -37.66711 | 144.84178 | 391 ft | 11 kts | 352° |
| 2026-05-07 02:16 | -37.66635 | 144.84164 | 394 ft | 11 kts | 352° |
| 2026-05-07 02:16 | -37.66562 | 144.84150 | 400 ft | 11 kts | 352° |
| 2026-05-07 02:17 | -37.66490 | 144.84136 | 403 ft | 10 kts | 350° |
| 2026-05-07 02:17 | -37.66421 | 144.84124 | 405 ft | 10 kts | 352° |
| 2026-05-07 02:17 | -37.66356 | 144.84130 | 409 ft | 10 kts | 40° |
| 2026-05-07 02:17 | -37.66346 | 144.84211 | 409 ft | 9 kts | 94° |
| 2026-05-07 02:18 | -37.66352 | 144.84295 | 408 ft | 10 kts | 95° |
| 2026-05-07 02:18 | -37.66359 | 144.84394 | 409 ft | 12 kts | 95° |
| 2026-05-07 02:18 | -37.66365 | 144.84503 | 409 ft | 13 kts | 93° |
| 2026-05-07 02:18 | -37.66371 | 144.84619 | 409 ft | 13 kts | 94° |
| 2026-05-07 02:19 | -37.66378 | 144.84731 | 410 ft | 12 kts | 94° |
| 2026-05-07 02:19 | -37.66334 | 144.84786 | 411 ft | 10 kts | 5° |
| 2026-05-07 02:19 | -37.66264 | 144.84791 | 412 ft | 10 kts | 3° |
| 2026-05-07 02:19 | -37.66222 | 144.84740 | 412 ft | 10 kts | 272° |
| 2026-05-07 02:20 | -37.66213 | 144.84575 | 412 ft | 46 kts | 274° |
| 2026-05-07 02:20 | -37.66174 | 144.83851 | 412 ft | 116 kts | 275° |
| 2026-05-07 02:20 | -37.66100 | 144.82632 | 687 ft | 150 kts | 269° |
| 2026-05-07 02:20 | -37.65989 | 144.81276 | 1455 ft | 159 kts | 273° |
| 2026-05-07 02:21 | -37.65713 | 144.79923 | 2393 ft | 157 kts | 271° |
| 2026-05-07 02:21 | -37.65486 | 144.78577 | 3245 ft | 156 kts | 276° |
| 2026-05-07 02:21 | -37.65079 | 144.77276 | 3911 ft | 175 kts | 295° |
| 2026-05-07 02:21 | -37.64024 | 144.76179 | 4194 ft | 222 kts | 330° |
| 2026-05-07 02:22 | -37.62419 | 144.76003 | 4412 ft | 259 kts | 11° |
| 2026-05-07 02:22 | -37.60852 | 144.77185 | 4877 ft | 271 kts | 52° |
| 2026-05-07 02:22 | -37.60089 | 144.79299 | 5516 ft | 263 kts | 90° |
| 2026-05-07 02:22 | -37.60412 | 144.81456 | 6275 ft | 244 kts | 128° |
| 2026-05-07 02:23 | -37.61598 | 144.82818 | 6952 ft | 226 kts | 165° |
| 2026-05-07 02:23 | -37.63096 | 144.82902 | 7638 ft | 216 kts | 195° |
| 2026-05-07 02:23 | -37.64590 | 144.82577 | 8322 ft | 220 kts | 189° |
| 2026-05-07 02:23 | -37.66123 | 144.82411 | 8990 ft | 222 kts | 189° |
| 2026-05-07 02:24 | -37.67557 | 144.81753 | 9630 ft | 223 kts | 213° |
| 2026-05-07 02:24 | -37.68678 | 144.80378 | 10277 ft | 230 kts | 232° |
| 2026-05-07 02:24 | -37.69274 | 144.78483 | 10935 ft | 241 kts | 253° |
| 2026-05-07 02:24 | -37.69138 | 144.76304 | 11543 ft | 263 kts | 278° |
| 2026-05-07 02:25 | -37.68108 | 144.74296 | 12061 ft | 295 kts | 309° |
| 2026-05-07 02:25 | -37.66295 | 144.72834 | 12565 ft | 311 kts | 320° |
| 2026-05-07 02:25 | -37.64472 | 144.71346 | 13030 ft | 314 kts | 314° |
| 2026-05-07 02:25 | -37.62818 | 144.69621 | 13516 ft | 310 kts | 303° |
| 2026-05-07 02:26 | -37.61474 | 144.67562 | 14069 ft | 299 kts | 288° |
| 2026-05-07 02:26 | -37.60604 | 144.65257 | 14573 ft | 284 kts | 274° |
| 2026-05-07 02:26 | -37.59994 | 144.62896 | 15089 ft | 284 kts | 272° |
| 2026-05-07 02:26 | -37.59405 | 144.60508 | 15583 ft | 287 kts | 272° |
| 2026-05-07 02:27 | -37.58794 | 144.58095 | 16094 ft | 291 kts | 273° |
| 2026-05-07 02:27 | -37.58153 | 144.55660 | 16585 ft | 295 kts | 274° |
| 2026-05-07 02:27 | -37.57483 | 144.53203 | 17069 ft | 299 kts | 275° |
| 2026-05-07 02:27 | -37.56788 | 144.50717 | 17587 ft | 302 kts | 275° |
| 2026-05-07 02:28 | -37.56074 | 144.48211 | 18068 ft | 306 kts | 275° |
| 2026-05-07 02:28 | -37.55345 | 144.45679 | 18536 ft | 309 kts | 275° |
| 2026-05-07 02:28 | -37.54601 | 144.43122 | 18986 ft | 312 kts | 276° |
| 2026-05-07 02:28 | -37.53850 | 144.40559 | 19434 ft | 313 kts | 276° |
| 2026-05-07 02:29 | -37.53092 | 144.37987 | 19890 ft | 314 kts | 276° |
| 2026-05-07 02:29 | -37.52329 | 144.35403 | 20333 ft | 316 kts | 276° |
| 2026-05-07 02:29 | -37.51562 | 144.32806 | 20761 ft | 317 kts | 276° |
| 2026-05-07 02:29 | -37.50789 | 144.30193 | 21192 ft | 319 kts | 276° |
| 2026-05-07 02:30 | -37.50014 | 144.27577 | 21627 ft | 320 kts | 277° |
| 2026-05-07 02:30 | -37.49234 | 144.24947 | 22057 ft | 321 kts | 277° |
| 2026-05-07 02:30 | -37.48450 | 144.22307 | 22469 ft | 323 kts | 277° |
| 2026-05-07 02:30 | -37.47661 | 144.19655 | 22891 ft | 324 kts | 277° |
| 2026-05-07 02:31 | -37.46871 | 144.16999 | 23289 ft | 325 kts | 277° |
| 2026-05-07 02:31 | -37.46075 | 144.14329 | 23689 ft | 326 kts | 277° |
| 2026-05-07 02:31 | -37.45277 | 144.11651 | 24028 ft | 328 kts | 277° |
| 2026-05-07 02:31 | -37.44473 | 144.08957 | 24351 ft | 329 kts | 277° |
| 2026-05-07 02:32 | -37.43342 | 144.05172 | 24767 ft | 331 kts | 278° |
| 2026-05-07 02:32 | -37.38379 | 143.88542 | 26529 ft | 338 kts | 278° |
| 2026-05-07 02:32 | -37.31626 | 143.66042 | 28540 ft | 351 kts | 279° |
| 2026-05-07 02:32 | -37.24608 | 143.43112 | 30234 ft | 362 kts | 281° |
| 2026-05-07 02:33 | -37.17191 | 143.18946 | 31423 ft | 371 kts | 281° |
| 2026-05-07 02:33 | -37.09839 | 142.94811 | 32405 ft | 379 kts | 281° |
| 2026-05-07 02:33 | -37.02156 | 142.69907 | 33254 ft | 386 kts | 282° |
| 2026-05-07 02:33 | -36.94295 | 142.44724 | 33935 ft | 392 kts | 283° |
| 2026-05-07 02:34 | -36.86288 | 142.19253 | 34467 ft | 395 kts | 283° |
| 2026-05-07 02:34 | -36.78200 | 141.93736 | 34932 ft | 398 kts | 284° |
| 2026-05-07 02:34 | -36.67696 | 141.60918 | 35386 ft | 400 kts | 284° |
| 2026-05-07 02:34 | -36.62332 | 141.44167 | 35569 ft | 402 kts | 285° |
| 2026-05-07 02:35 | -36.60183 | 141.37694 | 35555 ft | 410 kts | 285° |
| 2026-05-07 02:35 | -36.57992 | 141.31047 | 35667 ft | 421 kts | 286° |
| 2026-05-07 02:36 | -36.55760 | 141.24226 | 35785 ft | 431 kts | 286° |
| 2026-05-07 02:36 | -36.53478 | 141.17238 | 35891 ft | 441 kts | 286° |
| 2026-05-07 02:37 | -36.52318 | 141.13695 | 35996 ft | 444 kts | 286° |
| 2026-05-07 02:37 | -36.51149 | 141.10129 | 36194 ft | 445 kts | 286° |
| 2026-05-07 02:37 | -36.49982 | 141.06578 | 36414 ft | 443 kts | 287° |
| 2026-05-07 02:37 | -36.48821 | 141.03052 | 36367 ft | 438 kts | 287° |
| 2026-05-07 02:38 | -36.46545 | 140.96145 | 36352 ft | 426 kts | 286° |
| 2026-05-07 02:38 | -36.45432 | 140.92773 | 36127 ft | 418 kts | 286° |
| 2026-05-07 02:38 | -36.44341 | 140.89465 | 36115 ft | 412 kts | 286° |
| 2026-05-07 02:39 | -36.42146 | 140.82789 | 36131 ft | 423 kts | 286° |
| 2026-05-07 02:39 | -36.39899 | 140.76039 | 36046 ft | 420 kts | 289° |
| 2026-05-07 02:40 | -36.38517 | 140.72852 | 35748 ft | 421 kts | 299° |
| 2026-05-07 02:40 | -36.36761 | 140.69953 | 35445 ft | 419 kts | 303° |
| 2026-05-07 02:40 | -36.34948 | 140.67133 | 35065 ft | 417 kts | 303° |
| 2026-05-07 02:40 | -36.33136 | 140.64342 | 34700 ft | 414 kts | 303° |
| 2026-05-07 02:41 | -36.31338 | 140.61561 | 34328 ft | 412 kts | 303° |
| 2026-05-07 02:41 | -36.29559 | 140.58789 | 33920 ft | 410 kts | 302° |
| 2026-05-07 02:41 | -36.27916 | 140.55943 | 33530 ft | 403 kts | 296° |
| 2026-05-07 02:41 | -36.25790 | 140.52337 | 33064 ft | 403 kts | 302° |
| 2026-05-07 02:42 | -36.18752 | 140.41773 | 31645 ft | 393 kts | 303° |
| 2026-05-07 02:42 | -36.12067 | 140.31326 | 30266 ft | 383 kts | 302° |
| 2026-05-07 02:42 | -36.05541 | 140.21112 | 28744 ft | 372 kts | 302° |
| 2026-05-07 02:42 | -35.99191 | 140.11245 | 27370 ft | 361 kts | 302° |
| 2026-05-07 02:43 | -35.93049 | 140.01710 | 26056 ft | 351 kts | 302° |
| 2026-05-07 02:43 | -35.87006 | 139.92348 | 24712 ft | 346 kts | 302° |
| 2026-05-07 02:43 | -35.81048 | 139.83146 | 23327 ft | 340 kts | 303° |
| 2026-05-07 02:43 | -35.75217 | 139.74167 | 21989 ft | 332 kts | 303° |
| 2026-05-07 02:44 | -35.69522 | 139.65420 | 20759 ft | 323 kts | 303° |
| 2026-05-07 02:44 | -35.63955 | 139.56887 | 19561 ft | 317 kts | 303° |
| 2026-05-07 02:44 | -35.58469 | 139.48498 | 18337 ft | 312 kts | 303° |
| 2026-05-07 02:44 | -35.53132 | 139.40360 | 17065 ft | 307 kts | 303° |
| 2026-05-07 02:45 | -35.47820 | 139.32274 | 15869 ft | 302 kts | 304° |
| 2026-05-07 02:45 | -35.42586 | 139.24338 | 14734 ft | 297 kts | 306° |
| 2026-05-07 02:45 | -35.35036 | 139.20077 | 13588 ft | 304 kts | 338° |
| 2026-05-07 02:45 | -35.26969 | 139.16511 | 12392 ft | 312 kts | 336° |
| 2026-05-07 02:46 | -35.18762 | 139.12702 | 11140 ft | 316 kts | 336° |
| 2026-05-07 02:46 | -35.11634 | 139.09412 | 10181 ft | 310 kts | 336° |
| 2026-05-07 02:46 | -35.09605 | 139.08476 | 9741 ft | 313 kts | 336° |
| 2026-05-07 02:46 | -35.07531 | 139.07499 | 9147 ft | 322 kts | 333° |
| 2026-05-07 02:47 | -35.05696 | 139.06004 | 8765 ft | 315 kts | 313° |
| 2026-05-07 02:47 | -35.04113 | 139.04190 | 8467 ft | 311 kts | 312° |
| 2026-05-07 02:47 | -35.02547 | 139.02375 | 8152 ft | 310 kts | 312° |
| 2026-05-07 02:47 | -35.00984 | 139.00583 | 7895 ft | 306 kts | 313° |
| 2026-05-07 02:48 | -34.99430 | 138.98824 | 7594 ft | 304 kts | 313° |
| 2026-05-07 02:48 | -34.97880 | 138.97084 | 7297 ft | 302 kts | 313° |
| 2026-05-07 02:48 | -34.96335 | 138.95353 | 7004 ft | 300 kts | 313° |
| 2026-05-07 02:48 | -34.94805 | 138.93640 | 6695 ft | 298 kts | 313° |
| 2026-05-07 02:49 | -34.93279 | 138.91933 | 6395 ft | 296 kts | 314° |
| 2026-05-07 02:49 | -34.91766 | 138.90242 | 6094 ft | 294 kts | 314° |
| 2026-05-07 02:49 | -34.90269 | 138.88568 | 5808 ft | 291 kts | 314° |
| 2026-05-07 02:49 | -34.88782 | 138.86908 | 5565 ft | 287 kts | 314° |
| 2026-05-07 02:50 | -34.87363 | 138.85324 | 5376 ft | 279 kts | 315° |
| 2026-05-07 02:50 | -34.85967 | 138.83769 | 5173 ft | 266 kts | 314° |
| 2026-05-07 02:50 | -34.84621 | 138.82269 | 4914 ft | 259 kts | 315° |
| 2026-05-07 02:50 | -34.83296 | 138.80791 | 4693 ft | 256 kts | 314° |
| 2026-05-07 02:51 | -34.81991 | 138.79338 | 4417 ft | 252 kts | 314° |
| 2026-05-07 02:51 | -34.80808 | 138.77833 | 4128 ft | 246 kts | 298° |
| 2026-05-07 02:51 | -34.80355 | 138.75939 | 3945 ft | 228 kts | 263° |
| 2026-05-07 02:51 | -34.80891 | 138.74169 | 3852 ft | 220 kts | 235° |
| 2026-05-07 02:52 | -34.81708 | 138.72604 | 3829 ft | 218 kts | 234° |
| 2026-05-07 02:52 | -34.82568 | 138.71112 | 3705 ft | 220 kts | 230° |
| 2026-05-07 02:52 | -34.83539 | 138.69643 | 3407 ft | 224 kts | 228° |
| 2026-05-07 02:52 | -34.84550 | 138.68174 | 3024 ft | 222 kts | 228° |
| 2026-05-07 02:53 | -34.85529 | 138.66754 | 2652 ft | 217 kts | 228° |
| 2026-05-07 02:53 | -34.86474 | 138.65402 | 2406 ft | 209 kts | 227° |
| 2026-05-07 02:53 | -34.87406 | 138.64068 | 2118 ft | 204 kts | 228° |
| 2026-05-07 02:53 | -34.88295 | 138.62768 | 1838 ft | 195 kts | 228° |
| 2026-05-07 02:54 | -34.89139 | 138.61533 | 1573 ft | 185 kts | 228° |
| 2026-05-07 02:54 | -34.89941 | 138.60357 | 1320 ft | 175 kts | 227° |
| 2026-05-07 02:54 | -34.90691 | 138.59257 | 1093 ft | 163 kts | 228° |
| 2026-05-07 02:54 | -34.91388 | 138.58216 | 832 ft | 155 kts | 229° |
| 2026-05-07 02:55 | -34.92051 | 138.57251 | 647 ft | 142 kts | 228° |
| 2026-05-07 02:55 | -34.92654 | 138.56385 | 520 ft | 125 kts | 229° |
| 2026-05-07 02:55 | -34.93213 | 138.55568 | 405 ft | 134 kts | 229° |
| 2026-05-07 02:55 | -34.93817 | 138.54701 | 208 ft | 135 kts | 230° |
| 2026-05-07 02:56 | -34.94409 | 138.53828 | 35 ft | 130 kts | 229° |
| 2026-05-07 02:56 | -34.94919 | 138.53082 | 22 ft | 92 kts | 230° |
| 2026-05-07 02:56 | -34.95188 | 138.52693 | 20 ft | 29 kts | 229° |
| 2026-05-07 02:56 | -34.95243 | 138.52614 | 21 ft | 7 kts | 232° |
| 2026-05-07 02:57 | -34.95241 | 138.52559 | 20 ft | 7 kts | 309° |
| 2026-05-07 02:57 | -34.95201 | 138.52519 | 19 ft | 8 kts | 322° |
| 2026-05-07 02:57 | -34.95153 | 138.52475 | 19 ft | 9 kts | 324° |
| 2026-05-07 02:57 | -34.95087 | 138.52448 | 19 ft | 11 kts | 356° |
| 2026-05-07 02:58 | -34.95010 | 138.52471 | 19 ft | 12 kts | 31° |
| 2026-05-07 02:58 | -34.94938 | 138.52537 | 19 ft | 14 kts | 38° |
| 2026-05-07 02:58 | -34.94857 | 138.52613 | 20 ft | 15 kts | 37° |
| 2026-05-07 02:58 | -34.94800 | 138.52666 | 19 ft | 16 kts | 37° |
| 2026-05-07 02:59 | -34.94709 | 138.52751 | 19 ft | 17 kts | 37° |
| 2026-05-07 02:59 | -34.94613 | 138.52841 | 20 ft | 17 kts | 38° |
| 2026-05-07 02:59 | -34.94518 | 138.52931 | 25 ft | 17 kts | 39° |
| 2026-05-07 02:59 | -34.94438 | 138.53035 | 22 ft | 17 kts | 77° |
| 2026-05-07 03:00 | -34.94480 | 138.53160 | 25 ft | 16 kts | 123° |
| 2026-05-07 03:00 | -34.94521 | 138.53290 | 23 ft | 17 kts | 91° |
| 2026-05-07 03:00 | -34.94458 | 138.53415 | 23 ft | 18 kts | 49° |
| 2026-05-07 03:00 | -34.94377 | 138.53531 | 21 ft | 18 kts | 50° |
| 2026-05-07 03:01 | -34.94303 | 138.53637 | 25 ft | 14 kts | 44° |
| 2026-05-07 03:01 | -34.94212 | 138.53636 | 24 ft | 14 kts | 351° |
| 2026-05-07 03:01 | -34.94143 | 138.53698 | 27 ft | 12 kts | 50° |
| 2026-05-07 03:01 | -34.94104 | 138.53753 | 24 ft | 3 kts | 38° |
| 2026-05-07 03:02 | -34.94084 | 138.53748 | 27 ft | 3 kts | 331° |
| 2026-05-07 03:02 | -34.94067 | 138.53734 | 29 ft | 3 kts | 323° |
| 2026-05-07 03:02 | -34.94052 | 138.53719 | 29 ft | 3 kts | 320° |
| 2026-05-07 03:02 | -34.94039 | 138.53705 | 29 ft | 3 kts | 320° |
| 2026-05-07 03:03 | -34.94032 | 138.53699 | 28 ft | 0 kts | 320° |